Archival Weather

Chicago O'Hare International

Chicago, Illinois (KORD)

Report from: Sunday, November 19, 2023 10:51 AM CST
Current time: Sunday, February 25, 2024 3:07 PM CST

Current weather – Weather history – Daily summaries
Weather forecast

Temperature11.7°C (53.1°F)
Dew point2.8°C (37.0°F)
Winds 5 kts (2.6 m/s, 5.8 mph) East-Northeast (70°)
Visibility10 mi. (16.1 km)
Clouds Few clouds 25,000 ft. (7,620 m)
Altimeter30.06 in.Hg (1018 mB)
Relative humidity54 %
Density altitude-452 ft. (-138 m)
Sea-level pressure101.8 kPa (1018 mB, 30.07 in.Hg)
Remarks Automated weather observing station with precipitation discriminator
Flight conditions Visual Meteorological Conditions
Raw dataKORD 191651Z 07005KT 10SM FEW250 12/03 A3006 RMK AO2 SLP183 T01170028
An error has occurred. This application may no longer respond until reloaded. Reload 🗙